sensor_id;sensor_type;location;lat;lon;timestamp;P1;durP1;ratioP1;P2;durP2;ratioP2
7334;SDS011;3708;42.632;23.378;2023-09-18T00:01:18;14.50;;;13.00;;
7334;SDS011;3708;42.632;23.378;2023-09-18T00:03:45;21.83;;;13.93;;
7334;SDS011;3708;42.632;23.378;2023-09-18T00:06:12;17.67;;;14.87;;
7334;SDS011;3708;42.632;23.378;2023-09-18T00:08:39;18.77;;;15.33;;
7334;SDS011;3708;42.632;23.378;2023-09-18T00:11:06;20.03;;;17.23;;
7334;SDS011;3708;42.632;23.378;2023-09-18T00:13:34;20.07;;;17.97;;
7334;SDS011;3708;42.632;23.378;2023-09-18T00:16:01;22.00;;;18.73;;
7334;SDS011;3708;42.632;23.378;2023-09-18T00:18:29;23.80;;;19.27;;
7334;SDS011;3708;42.632;23.378;2023-09-18T00:20:56;26.33;;;19.57;;
7334;SDS011;3708;42.632;23.378;2023-09-18T00:23:23;20.77;;;18.57;;
7334;SDS011;3708;42.632;23.378;2023-09-18T00:25:49;23.93;;;19.83;;
7334;SDS011;3708;42.632;23.378;2023-09-18T00:28:16;24.37;;;20.97;;
7334;SDS011;3708;42.632;23.378;2023-09-18T00:30:48;24.80;;;21.00;;
7334;SDS011;3708;42.632;23.378;2023-09-18T00:33:16;26.07;;;21.77;;
7334;SDS011;3708;42.632;23.378;2023-09-18T00:35:47;24.83;;;20.97;;
7334;SDS011;3708;42.632;23.378;2023-09-18T00:38:14;23.43;;;20.30;;
7334;SDS011;3708;42.632;23.378;2023-09-18T00:40:41;23.37;;;20.27;;
7334;SDS011;3708;42.632;23.378;2023-09-18T00:43:08;21.83;;;18.23;;
7334;SDS011;3708;42.632;23.378;2023-09-18T00:45:38;23.03;;;18.23;;
7334;SDS011;3708;42.632;23.378;2023-09-18T00:48:09;23.97;;;18.60;;
7334;SDS011;3708;42.632;23.378;2023-09-18T00:50:38;21.13;;;18.73;;
7334;SDS011;3708;42.632;23.378;2023-09-18T00:53:05;22.53;;;19.37;;
7334;SDS011;3708;42.632;23.378;2023-09-18T00:55:34;24.87;;;20.03;;
7334;SDS011;3708;42.632;23.378;2023-09-18T00:58:04;24.17;;;20.47;;
7334;SDS011;3708;42.632;23.378;2023-09-18T01:00:31;22.97;;;20.57;;
7334;SDS011;3708;42.632;23.378;2023-09-18T01:02:58;23.60;;;21.07;;
7334;SDS011;3708;42.632;23.378;2023-09-18T01:05:27;24.60;;;21.50;;
7334;SDS011;3708;42.632;23.378;2023-09-18T01:07:53;22.87;;;20.43;;
7334;SDS011;3708;42.632;23.378;2023-09-18T01:10:20;24.30;;;21.53;;
7334;SDS011;3708;42.632;23.378;2023-09-18T01:12:55;23.77;;;21.13;;
7334;SDS011;3708;42.632;23.378;2023-09-18T01:15:29;24.37;;;21.37;;
7334;SDS011;3708;42.632;23.378;2023-09-18T01:18:01;24.97;;;20.90;;
7334;SDS011;3708;42.632;23.378;2023-09-18T01:20:30;23.47;;;20.73;;
7334;SDS011;3708;42.632;23.378;2023-09-18T01:22:59;23.93;;;21.00;;
7334;SDS011;3708;42.632;23.378;2023-09-18T01:25:25;23.93;;;20.07;;
7334;SDS011;3708;42.632;23.378;2023-09-18T01:27:52;24.77;;;20.03;;
7334;SDS011;3708;42.632;23.378;2023-09-18T01:30:19;22.77;;;19.63;;
7334;SDS011;3708;42.632;23.378;2023-09-18T01:32:46;22.60;;;17.67;;
7334;SDS011;3708;42.632;23.378;2023-09-18T01:35:13;21.83;;;18.70;;
7334;SDS011;3708;42.632;23.378;2023-09-18T01:37:42;20.60;;;16.77;;
7334;SDS011;3708;42.632;23.378;2023-09-18T01:40:12;19.10;;;15.30;;
7334;SDS011;3708;42.632;23.378;2023-09-18T01:42:39;19.17;;;15.87;;
7334;SDS011;3708;42.632;23.378;2023-09-18T01:45:07;18.53;;;15.73;;
7334;SDS011;3708;42.632;23.378;2023-09-18T01:47:35;17.47;;;14.50;;
7334;SDS011;3708;42.632;23.378;2023-09-18T01:50:03;15.67;;;14.10;;
7334;SDS011;3708;42.632;23.378;2023-09-18T01:52:31;16.80;;;14.93;;
7334;SDS011;3708;42.632;23.378;2023-09-18T01:54:59;15.87;;;14.27;;
7334;SDS011;3708;42.632;23.378;2023-09-18T01:57:28;18.03;;;15.60;;
7334;SDS011;3708;42.632;23.378;2023-09-18T01:59:55;20.10;;;15.97;;
7334;SDS011;3708;42.632;23.378;2023-09-18T02:02:21;18.00;;;15.80;;
7334;SDS011;3708;42.632;23.378;2023-09-18T02:04:49;16.57;;;14.87;;
7334;SDS011;3708;42.632;23.378;2023-09-18T02:07:15;18.97;;;15.60;;
7334;SDS011;3708;42.632;23.378;2023-09-18T02:09:42;17.30;;;15.43;;
7334;SDS011;3708;42.632;23.378;2023-09-18T02:12:09;20.17;;;15.60;;
7334;SDS011;3708;42.632;23.378;2023-09-18T02:14:43;17.37;;;15.47;;
7334;SDS011;3708;42.632;23.378;2023-09-18T02:17:10;16.70;;;15.00;;
7334;SDS011;3708;42.632;23.378;2023-09-18T02:19:37;17.90;;;15.80;;
7334;SDS011;3708;42.632;23.378;2023-09-18T02:22:04;17.50;;;15.63;;
7334;SDS011;3708;42.632;23.378;2023-09-18T02:24:31;17.87;;;16.07;;
7334;SDS011;3708;42.632;23.378;2023-09-18T02:26:58;22.33;;;15.87;;
7334;SDS011;3708;42.632;23.378;2023-09-18T02:29:25;18.63;;;16.30;;
7334;SDS011;3708;42.632;23.378;2023-09-18T02:31:53;18.87;;;16.47;;
7334;SDS011;3708;42.632;23.378;2023-09-18T02:34:20;17.00;;;15.00;;
7334;SDS011;3708;42.632;23.378;2023-09-18T02:36:47;18.97;;;15.63;;
7334;SDS011;3708;42.632;23.378;2023-09-18T02:39:14;18.50;;;14.23;;
7334;SDS011;3708;42.632;23.378;2023-09-18T02:41:41;17.10;;;14.80;;
7334;SDS011;3708;42.632;23.378;2023-09-18T02:44:07;16.43;;;14.73;;
7334;SDS011;3708;42.632;23.378;2023-09-18T02:46:34;16.57;;;14.40;;
7334;SDS011;3708;42.632;23.378;2023-09-18T02:49:04;15.67;;;14.03;;
7334;SDS011;3708;42.632;23.378;2023-09-18T02:51:31;15.47;;;13.63;;
7334;SDS011;3708;42.632;23.378;2023-09-18T02:53:58;16.47;;;13.73;;
7334;SDS011;3708;42.632;23.378;2023-09-18T02:56:25;15.73;;;13.93;;
7334;SDS011;3708;42.632;23.378;2023-09-18T02:58:52;19.10;;;14.53;;
7334;SDS011;3708;42.632;23.378;2023-09-18T03:01:18;18.03;;;14.20;;
7334;SDS011;3708;42.632;23.378;2023-09-18T03:03:45;19.20;;;13.53;;
7334;SDS011;3708;42.632;23.378;2023-09-18T03:06:13;20.17;;;14.77;;
7334;SDS011;3708;42.632;23.378;2023-09-18T03:08:40;16.77;;;14.00;;
7334;SDS011;3708;42.632;23.378;2023-09-18T03:11:10;18.27;;;14.90;;
7334;SDS011;3708;42.632;23.378;2023-09-18T03:13:42;17.63;;;14.20;;
7334;SDS011;3708;42.632;23.378;2023-09-18T03:16:11;17.70;;;15.90;;
7334;SDS011;3708;42.632;23.378;2023-09-18T03:18:38;21.20;;;16.60;;
7334;SDS011;3708;42.632;23.378;2023-09-18T03:21:05;22.97;;;16.33;;
7334;SDS011;3708;42.632;23.378;2023-09-18T03:23:33;18.17;;;16.23;;
7334;SDS011;3708;42.632;23.378;2023-09-18T03:26:00;18.50;;;16.43;;
7334;SDS011;3708;42.632;23.378;2023-09-18T03:28:27;21.70;;;16.10;;
7334;SDS011;3708;42.632;23.378;2023-09-18T03:30:54;18.07;;;16.23;;
7334;SDS011;3708;42.632;23.378;2023-09-18T03:33:21;20.37;;;15.10;;
7334;SDS011;3708;42.632;23.378;2023-09-18T03:35:49;19.37;;;16.17;;
7334;SDS011;3708;42.632;23.378;2023-09-18T03:38:19;19.77;;;17.30;;
7334;SDS011;3708;42.632;23.378;2023-09-18T03:40:48;19.00;;;16.20;;
7334;SDS011;3708;42.632;23.378;2023-09-18T03:43:15;18.67;;;15.60;;
7334;SDS011;3708;42.632;23.378;2023-09-18T03:45:42;19.50;;;17.40;;
7334;SDS011;3708;42.632;23.378;2023-09-18T03:48:09;23.27;;;18.37;;
7334;SDS011;3708;42.632;23.378;2023-09-18T03:50:36;24.67;;;17.37;;
7334;SDS011;3708;42.632;23.378;2023-09-18T03:53:03;20.73;;;17.43;;
7334;SDS011;3708;42.632;23.378;2023-09-18T03:55:30;25.30;;;17.17;;
7334;SDS011;3708;42.632;23.378;2023-09-18T03:57:58;19.33;;;17.20;;
7334;SDS011;3708;42.632;23.378;2023-09-18T04:00:25;20.60;;;16.63;;
7334;SDS011;3708;42.632;23.378;2023-09-18T04:02:52;19.37;;;15.83;;
7334;SDS011;3708;42.632;23.378;2023-09-18T04:05:19;22.07;;;17.17;;
7334;SDS011;3708;42.632;23.378;2023-09-18T04:07:46;21.90;;;17.97;;
7334;SDS011;3708;42.632;23.378;2023-09-18T04:10:13;20.83;;;17.10;;
7334;SDS011;3708;42.632;23.378;2023-09-18T04:12:45;25.97;;;18.00;;
7334;SDS011;3708;42.632;23.378;2023-09-18T04:15:14;20.13;;;18.00;;
7334;SDS011;3708;42.632;23.378;2023-09-18T04:17:42;20.37;;;17.57;;
7334;SDS011;3708;42.632;23.378;2023-09-18T04:20:10;20.93;;;18.40;;
7334;SDS011;3708;42.632;23.378;2023-09-18T04:22:43;21.67;;;18.63;;
7334;SDS011;3708;42.632;23.378;2023-09-18T04:25:14;24.33;;;18.93;;
7334;SDS011;3708;42.632;23.378;2023-09-18T04:27:42;25.83;;;19.60;;
7334;SDS011;3708;42.632;23.378;2023-09-18T04:30:09;22.33;;;19.70;;
7334;SDS011;3708;42.632;23.378;2023-09-18T04:32:37;23.77;;;19.60;;
7334;SDS011;3708;42.632;23.378;2023-09-18T04:35:05;24.00;;;20.07;;
7334;SDS011;3708;42.632;23.378;2023-09-18T04:37:35;24.47;;;20.20;;
7334;SDS011;3708;42.632;23.378;2023-09-18T04:40:03;23.13;;;19.93;;
7334;SDS011;3708;42.632;23.378;2023-09-18T04:42:34;23.83;;;20.27;;
7334;SDS011;3708;42.632;23.378;2023-09-18T04:45:01;26.23;;;19.23;;
7334;SDS011;3708;42.632;23.378;2023-09-18T04:47:28;23.83;;;19.53;;
7334;SDS011;3708;42.632;23.378;2023-09-18T04:49:56;25.53;;;20.07;;
7334;SDS011;3708;42.632;23.378;2023-09-18T04:52:23;23.57;;;20.13;;
7334;SDS011;3708;42.632;23.378;2023-09-18T04:54:50;21.17;;;17.93;;
7334;SDS011;3708;42.632;23.378;2023-09-18T04:57:19;22.93;;;19.53;;
7334;SDS011;3708;42.632;23.378;2023-09-18T04:59:47;27.53;;;18.90;;
7334;SDS011;3708;42.632;23.378;2023-09-18T05:02:14;24.97;;;18.30;;
7334;SDS011;3708;42.632;23.378;2023-09-18T05:04:41;24.33;;;18.53;;
7334;SDS011;3708;42.632;23.378;2023-09-18T05:07:09;24.53;;;19.10;;
7334;SDS011;3708;42.632;23.378;2023-09-18T05:09:36;22.27;;;18.87;;
7334;SDS011;3708;42.632;23.378;2023-09-18T05:12:04;23.33;;;17.93;;
7334;SDS011;3708;42.632;23.378;2023-09-18T05:14:33;19.17;;;17.07;;
7334;SDS011;3708;42.632;23.378;2023-09-18T05:17:00;22.40;;;17.23;;
7334;SDS011;3708;42.632;23.378;2023-09-18T05:19:27;21.33;;;18.97;;
7334;SDS011;3708;42.632;23.378;2023-09-18T05:21:54;22.90;;;17.13;;
7334;SDS011;3708;42.632;23.378;2023-09-18T05:24:22;23.07;;;16.70;;
7334;SDS011;3708;42.632;23.378;2023-09-18T05:26:52;19.17;;;17.17;;
7334;SDS011;3708;42.632;23.378;2023-09-18T05:29:19;28.13;;;18.10;;
7334;SDS011;3708;42.632;23.378;2023-09-18T05:31:46;24.37;;;17.73;;
7334;SDS011;3708;42.632;23.378;2023-09-18T05:34:13;23.90;;;17.10;;
7334;SDS011;3708;42.632;23.378;2023-09-18T05:36:40;20.07;;;16.80;;
7334;SDS011;3708;42.632;23.378;2023-09-18T05:39:07;21.17;;;16.93;;
7334;SDS011;3708;42.632;23.378;2023-09-18T05:41:38;21.93;;;16.63;;
7334;SDS011;3708;42.632;23.378;2023-09-18T05:44:05;20.67;;;17.43;;
7334;SDS011;3708;42.632;23.378;2023-09-18T05:46:33;20.80;;;16.80;;
7334;SDS011;3708;42.632;23.378;2023-09-18T05:49:01;23.30;;;16.37;;
7334;SDS011;3708;42.632;23.378;2023-09-18T05:51:28;23.57;;;18.17;;
7334;SDS011;3708;42.632;23.378;2023-09-18T05:53:55;19.37;;;16.43;;
7334;SDS011;3708;42.632;23.378;2023-09-18T05:56:22;25.27;;;18.30;;
7334;SDS011;3708;42.632;23.378;2023-09-18T05:58:51;22.73;;;17.27;;
7334;SDS011;3708;42.632;23.378;2023-09-18T06:01:18;22.17;;;18.17;;
7334;SDS011;3708;42.632;23.378;2023-09-18T06:03:45;19.10;;;16.97;;
7334;SDS011;3708;42.632;23.378;2023-09-18T06:06:12;22.03;;;17.17;;
7334;SDS011;3708;42.632;23.378;2023-09-18T06:08:39;23.17;;;18.40;;
7334;SDS011;3708;42.632;23.378;2023-09-18T06:11:06;21.73;;;17.53;;
7334;SDS011;3708;42.632;23.378;2023-09-18T06:13:33;21.13;;;17.67;;
7334;SDS011;3708;42.632;23.378;2023-09-18T06:16:04;19.93;;;15.37;;
7334;SDS011;3708;42.632;23.378;2023-09-18T06:18:33;19.50;;;16.37;;
7334;SDS011;3708;42.632;23.378;2023-09-18T06:21:01;17.17;;;14.87;;
7334;SDS011;3708;42.632;23.378;2023-09-18T06:23:27;19.53;;;15.03;;
7334;SDS011;3708;42.632;23.378;2023-09-18T06:25:54;20.43;;;15.10;;
7334;SDS011;3708;42.632;23.378;2023-09-18T06:28:21;18.20;;;14.90;;
7334;SDS011;3708;42.632;23.378;2023-09-18T06:30:48;18.77;;;14.57;;
7334;SDS011;3708;42.632;23.378;2023-09-18T06:33:16;19.23;;;13.30;;
7334;SDS011;3708;42.632;23.378;2023-09-18T06:35:43;16.27;;;13.83;;
7334;SDS011;3708;42.632;23.378;2023-09-18T06:38:10;18.80;;;14.47;;
7334;SDS011;3708;42.632;23.378;2023-09-18T06:40:38;17.63;;;13.67;;
7334;SDS011;3708;42.632;23.378;2023-09-18T06:43:04;20.10;;;14.97;;
7334;SDS011;3708;42.632;23.378;2023-09-18T06:45:31;16.87;;;14.50;;
7334;SDS011;3708;42.632;23.378;2023-09-18T06:47:59;17.53;;;14.80;;
7334;SDS011;3708;42.632;23.378;2023-09-18T06:50:27;17.87;;;13.63;;
7334;SDS011;3708;42.632;23.378;2023-09-18T06:52:55;19.80;;;14.90;;
7334;SDS011;3708;42.632;23.378;2023-09-18T06:55:22;17.80;;;14.67;;
7334;SDS011;3708;42.632;23.378;2023-09-18T06:57:49;16.10;;;12.75;;
7334;SDS011;3708;42.632;23.378;2023-09-18T07:00:17;19.23;;;14.10;;
7334;SDS011;3708;42.632;23.378;2023-09-18T07:02:46;16.30;;;14.37;;
7334;SDS011;3708;42.632;23.378;2023-09-18T07:05:12;21.77;;;13.83;;
7334;SDS011;3708;42.632;23.378;2023-09-18T07:07:41;16.02;;;14.35;;
7334;SDS011;3708;42.632;23.378;2023-09-18T07:10:08;20.30;;;14.30;;
7334;SDS011;3708;42.632;23.378;2023-09-18T07:12:35;16.08;;;13.75;;
7334;SDS011;3708;42.632;23.378;2023-09-18T07:15:02;18.13;;;14.90;;
7334;SDS011;3708;42.632;23.378;2023-09-18T07:17:29;19.17;;;14.52;;
7334;SDS011;3708;42.632;23.378;2023-09-18T07:19:56;15.70;;;13.88;;
7334;SDS011;3708;42.632;23.378;2023-09-18T07:22:24;16.02;;;13.95;;
7334;SDS011;3708;42.632;23.378;2023-09-18T07:24:53;16.58;;;14.80;;
7334;SDS011;3708;42.632;23.378;2023-09-18T07:27:20;16.05;;;14.35;;
7334;SDS011;3708;42.632;23.378;2023-09-18T07:29:47;18.40;;;13.65;;
7334;SDS011;3708;42.632;23.378;2023-09-18T07:32:14;13.15;;;11.73;;
7334;SDS011;3708;42.632;23.378;2023-09-18T07:34:41;16.40;;;13.82;;
7334;SDS011;3708;42.632;23.378;2023-09-18T07:37:08;17.75;;;15.00;;
7334;SDS011;3708;42.632;23.378;2023-09-18T07:39:35;16.15;;;14.02;;
7334;SDS011;3708;42.632;23.378;2023-09-18T07:42:03;19.92;;;13.70;;
7334;SDS011;3708;42.632;23.378;2023-09-18T07:44:31;16.05;;;14.35;;
7334;SDS011;3708;42.632;23.378;2023-09-18T07:46:58;16.00;;;13.23;;
7334;SDS011;3708;42.632;23.378;2023-09-18T07:49:26;14.68;;;12.75;;
7334;SDS011;3708;42.632;23.378;2023-09-18T07:51:53;15.02;;;13.43;;
7334;SDS011;3708;42.632;23.378;2023-09-18T07:54:20;15.38;;;13.10;;
7334;SDS011;3708;42.632;23.378;2023-09-18T07:56:47;18.60;;;14.25;;
7334;SDS011;3708;42.632;23.378;2023-09-18T07:59:16;14.85;;;13.25;;
7334;SDS011;3708;42.632;23.378;2023-09-18T08:01:42;14.25;;;12.60;;
7334;SDS011;3708;42.632;23.378;2023-09-18T08:04:09;15.30;;;13.25;;
7334;SDS011;3708;42.632;23.378;2023-09-18T08:06:36;17.40;;;13.35;;
7334;SDS011;3708;42.632;23.378;2023-09-18T08:09:04;17.35;;;14.57;;
7334;SDS011;3708;42.632;23.378;2023-09-18T08:11:31;17.38;;;13.05;;
7334;SDS011;3708;42.632;23.378;2023-09-18T08:13:58;16.02;;;13.70;;
7334;SDS011;3708;42.632;23.378;2023-09-18T08:16:26;18.13;;;14.07;;
7334;SDS011;3708;42.632;23.378;2023-09-18T08:18:54;16.75;;;14.55;;
7334;SDS011;3708;42.632;23.378;2023-09-18T08:21:21;14.82;;;13.32;;
7334;SDS011;3708;42.632;23.378;2023-09-18T08:23:49;15.60;;;13.73;;
7334;SDS011;3708;42.632;23.378;2023-09-18T08:26:16;20.98;;;15.45;;
7334;SDS011;3708;42.632;23.378;2023-09-18T08:28:43;16.50;;;14.77;;
7334;SDS011;3708;42.632;23.378;2023-09-18T08:31:10;14.88;;;12.73;;
7334;SDS011;3708;42.632;23.378;2023-09-18T08:33:38;15.02;;;12.82;;
7334;SDS011;3708;42.632;23.378;2023-09-18T08:36:05;15.63;;;13.70;;
7334;SDS011;3708;42.632;23.378;2023-09-18T08:38:32;16.83;;;12.75;;
7334;SDS011;3708;42.632;23.378;2023-09-18T08:40:59;14.45;;;13.02;;
7334;SDS011;3708;42.632;23.378;2023-09-18T08:43:26;15.77;;;12.20;;
7334;SDS011;3708;42.632;23.378;2023-09-18T08:45:54;12.88;;;11.57;;
7334;SDS011;3708;42.632;23.378;2023-09-18T08:48:26;17.73;;;13.57;;
7334;SDS011;3708;42.632;23.378;2023-09-18T08:51:01;15.45;;;11.40;;
7334;SDS011;3708;42.632;23.378;2023-09-18T08:53:29;14.02;;;11.35;;
7334;SDS011;3708;42.632;23.378;2023-09-18T08:55:57;12.63;;;11.38;;
7334;SDS011;3708;42.632;23.378;2023-09-18T08:58:27;14.50;;;10.55;;
7334;SDS011;3708;42.632;23.378;2023-09-18T09:00:58;13.23;;;10.57;;
7334;SDS011;3708;42.632;23.378;2023-09-18T09:03:26;12.25;;;10.23;;
7334;SDS011;3708;42.632;23.378;2023-09-18T09:05:53;11.70;;;9.73;;
7334;SDS011;3708;42.632;23.378;2023-09-18T09:08:21;11.48;;;10.27;;
7334;SDS011;3708;42.632;23.378;2023-09-18T09:10:48;16.60;;;10.80;;
7334;SDS011;3708;42.632;23.378;2023-09-18T09:13:15;11.50;;;9.77;;
7334;SDS011;3708;42.632;23.378;2023-09-18T09:15:45;10.45;;;9.45;;
7334;SDS011;3708;42.632;23.378;2023-09-18T09:18:15;11.05;;;9.88;;
7334;SDS011;3708;42.632;23.378;2023-09-18T09:20:42;12.00;;;8.43;;
7334;SDS011;3708;42.632;23.378;2023-09-18T09:23:19;11.43;;;9.70;;
7334;SDS011;3708;42.632;23.378;2023-09-18T09:25:47;13.50;;;10.00;;
7334;SDS011;3708;42.632;23.378;2023-09-18T09:28:14;10.73;;;9.60;;
7334;SDS011;3708;42.632;23.378;2023-09-18T09:30:41;10.07;;;9.05;;
7334;SDS011;3708;42.632;23.378;2023-09-18T09:33:11;10.60;;;9.27;;
7334;SDS011;3708;42.632;23.378;2023-09-18T09:35:38;9.98;;;8.82;;
7334;SDS011;3708;42.632;23.378;2023-09-18T09:38:09;10.82;;;8.63;;
7334;SDS011;3708;42.632;23.378;2023-09-18T09:40:40;9.20;;;7.82;;
7334;SDS011;3708;42.632;23.378;2023-09-18T09:43:10;11.38;;;8.95;;
7334;SDS011;3708;42.632;23.378;2023-09-18T09:45:40;10.95;;;9.20;;
7334;SDS011;3708;42.632;23.378;2023-09-18T09:48:08;14.15;;;9.93;;
7334;SDS011;3708;42.632;23.378;2023-09-18T09:50:44;12.15;;;9.55;;
7334;SDS011;3708;42.632;23.378;2023-09-18T09:53:13;10.50;;;8.68;;
7334;SDS011;3708;42.632;23.378;2023-09-18T09:55:40;9.38;;;8.40;;
7334;SDS011;3708;42.632;23.378;2023-09-18T09:58:07;12.57;;;8.57;;
7334;SDS011;3708;42.632;23.378;2023-09-18T10:00:39;10.52;;;8.70;;
7334;SDS011;3708;42.632;23.378;2023-09-18T10:03:11;8.93;;;7.93;;
7334;SDS011;3708;42.632;23.378;2023-09-18T10:05:42;9.52;;;7.50;;
7334;SDS011;3708;42.632;23.378;2023-09-18T10:08:12;11.40;;;8.52;;
7334;SDS011;3708;42.632;23.378;2023-09-18T10:10:43;11.80;;;8.05;;
7334;SDS011;3708;42.632;23.378;2023-09-18T10:13:16;12.57;;;9.15;;
7334;SDS011;3708;42.632;23.378;2023-09-18T10:15:46;12.25;;;8.25;;
7334;SDS011;3708;42.632;23.378;2023-09-18T10:18:24;9.00;;;8.10;;
7334;SDS011;3708;42.632;23.378;2023-09-18T10:20:58;9.57;;;7.85;;
7334;SDS011;3708;42.632;23.378;2023-09-18T10:23:37;8.73;;;7.63;;
7334;SDS011;3708;42.632;23.378;2023-09-18T10:26:12;8.75;;;7.35;;
7334;SDS011;3708;42.632;23.378;2023-09-18T10:28:46;8.18;;;6.25;;
7334;SDS011;3708;42.632;23.378;2023-09-18T10:31:18;8.80;;;7.13;;
7334;SDS011;3708;42.632;23.378;2023-09-18T10:33:46;8.10;;;7.03;;
7334;SDS011;3708;42.632;23.378;2023-09-18T10:36:15;8.02;;;7.07;;
7334;SDS011;3708;42.632;23.378;2023-09-18T10:38:43;9.18;;;6.18;;
7334;SDS011;3708;42.632;23.378;2023-09-18T10:41:14;7.82;;;6.65;;
7334;SDS011;3708;42.632;23.378;2023-09-18T10:43:43;9.63;;;6.45;;
7334;SDS011;3708;42.632;23.378;2023-09-18T10:46:13;7.50;;;6.25;;
7334;SDS011;3708;42.632;23.378;2023-09-18T10:48:40;8.52;;;5.85;;
7334;SDS011;3708;42.632;23.378;2023-09-18T10:51:09;8.48;;;5.50;;
7334;SDS011;3708;42.632;23.378;2023-09-18T10:53:39;5.32;;;4.82;;
7334;SDS011;3708;42.632;23.378;2023-09-18T10:56:06;6.07;;;4.68;;
7334;SDS011;3708;42.632;23.378;2023-09-18T10:58:33;5.45;;;4.88;;
7334;SDS011;3708;42.632;23.378;2023-09-18T11:01:01;5.13;;;4.60;;
7334;SDS011;3708;42.632;23.378;2023-09-18T11:03:31;6.47;;;5.18;;
7334;SDS011;3708;42.632;23.378;2023-09-18T11:06:03;7.38;;;4.82;;
7334;SDS011;3708;42.632;23.378;2023-09-18T11:08:32;6.53;;;4.63;;
7334;SDS011;3708;42.632;23.378;2023-09-18T11:11:05;9.80;;;5.10;;
7334;SDS011;3708;42.632;23.378;2023-09-18T11:13:38;5.32;;;4.55;;
7334;SDS011;3708;42.632;23.378;2023-09-18T11:16:32;5.35;;;4.47;;
7334;SDS011;3708;42.632;23.378;2023-09-18T11:19:11;6.45;;;4.80;;
7334;SDS011;3708;42.632;23.378;2023-09-18T11:21:42;5.82;;;4.38;;
7334;SDS011;3708;42.632;23.378;2023-09-18T11:24:15;5.15;;;4.65;;
7334;SDS011;3708;42.632;23.378;2023-09-18T11:26:44;8.48;;;4.53;;
7334;SDS011;3708;42.632;23.378;2023-09-18T11:29:13;5.43;;;4.63;;
7334;SDS011;3708;42.632;23.378;2023-09-18T11:31:43;7.40;;;4.75;;
7334;SDS011;3708;42.632;23.378;2023-09-18T11:34:19;6.68;;;4.97;;
7334;SDS011;3708;42.632;23.378;2023-09-18T11:36:50;7.07;;;4.50;;
7334;SDS011;3708;42.632;23.378;2023-09-18T11:39:33;4.65;;;4.18;;
7334;SDS011;3708;42.632;23.378;2023-09-18T11:42:06;4.97;;;4.45;;
7334;SDS011;3708;42.632;23.378;2023-09-18T11:44:35;4.95;;;3.72;;
7334;SDS011;3708;42.632;23.378;2023-09-18T11:47:06;5.55;;;4.05;;
7334;SDS011;3708;42.632;23.378;2023-09-18T11:49:39;6.05;;;4.47;;
7334;SDS011;3708;42.632;23.378;2023-09-18T11:52:08;6.45;;;4.30;;
7334;SDS011;3708;42.632;23.378;2023-09-18T11:54:36;7.40;;;4.70;;
7334;SDS011;3708;42.632;23.378;2023-09-18T11:57:06;6.13;;;4.57;;
7334;SDS011;3708;42.632;23.378;2023-09-18T11:59:37;5.28;;;4.40;;
7334;SDS011;3708;42.632;23.378;2023-09-18T12:02:06;7.45;;;5.30;;
7334;SDS011;3708;42.632;23.378;2023-09-18T12:04:34;7.85;;;4.50;;
7334;SDS011;3708;42.632;23.378;2023-09-18T12:07:02;5.75;;;4.57;;
7334;SDS011;3708;42.632;23.378;2023-09-18T12:09:30;5.55;;;4.28;;
7334;SDS011;3708;42.632;23.378;2023-09-18T12:11:58;8.48;;;5.47;;
7334;SDS011;3708;42.632;23.378;2023-09-18T12:14:30;5.00;;;4.47;;
7334;SDS011;3708;42.632;23.378;2023-09-18T12:16:58;8.23;;;4.88;;
7334;SDS011;3708;42.632;23.378;2023-09-18T12:19:25;5.22;;;4.25;;
7334;SDS011;3708;42.632;23.378;2023-09-18T12:21:54;5.60;;;5.00;;
7334;SDS011;3708;42.632;23.378;2023-09-18T12:24:23;6.13;;;4.80;;
7334;SDS011;3708;42.632;23.378;2023-09-18T12:26:51;6.20;;;4.88;;
7334;SDS011;3708;42.632;23.378;2023-09-18T12:29:21;6.95;;;4.50;;
7334;SDS011;3708;42.632;23.378;2023-09-18T12:31:48;5.22;;;4.53;;
7334;SDS011;3708;42.632;23.378;2023-09-18T12:34:18;6.85;;;4.53;;
7334;SDS011;3708;42.632;23.378;2023-09-18T12:36:46;5.88;;;4.10;;
7334;SDS011;3708;42.632;23.378;2023-09-18T12:39:14;7.18;;;4.43;;
7334;SDS011;3708;42.632;23.378;2023-09-18T12:41:44;7.00;;;5.35;;
7334;SDS011;3708;42.632;23.378;2023-09-18T12:44:12;5.63;;;4.38;;
7334;SDS011;3708;42.632;23.378;2023-09-18T12:46:41;5.15;;;4.30;;
7334;SDS011;3708;42.632;23.378;2023-09-18T12:49:16;7.95;;;4.30;;
7334;SDS011;3708;42.632;23.378;2023-09-18T12:51:54;5.45;;;3.97;;
7334;SDS011;3708;42.632;23.378;2023-09-18T12:54:37;4.90;;;3.60;;
7334;SDS011;3708;42.632;23.378;2023-09-18T12:57:09;5.50;;;3.90;;
7334;SDS011;3708;42.632;23.378;2023-09-18T12:59:37;7.22;;;4.30;;
7334;SDS011;3708;42.632;23.378;2023-09-18T13:02:05;5.13;;;4.20;;
7334;SDS011;3708;42.632;23.378;2023-09-18T13:04:34;6.00;;;3.65;;
7334;SDS011;3708;42.632;23.378;2023-09-18T13:07:02;5.90;;;4.35;;
7334;SDS011;3708;42.632;23.378;2023-09-18T13:09:30;5.15;;;4.10;;
7334;SDS011;3708;42.632;23.378;2023-09-18T13:11:57;5.20;;;4.30;;
7334;SDS011;3708;42.632;23.378;2023-09-18T13:14:26;4.45;;;3.75;;
7334;SDS011;3708;42.632;23.378;2023-09-18T13:16:53;5.82;;;3.60;;
7334;SDS011;3708;42.632;23.378;2023-09-18T13:19:20;4.28;;;3.72;;
7334;SDS011;3708;42.632;23.378;2023-09-18T13:21:48;6.22;;;3.40;;
7334;SDS011;3708;42.632;23.378;2023-09-18T13:24:25;6.32;;;3.92;;
7334;SDS011;3708;42.632;23.378;2023-09-18T13:26:53;5.50;;;3.65;;
7334;SDS011;3708;42.632;23.378;2023-09-18T13:29:20;4.55;;;3.83;;
7334;SDS011;3708;42.632;23.378;2023-09-18T13:31:48;6.18;;;4.03;;
7334;SDS011;3708;42.632;23.378;2023-09-18T13:34:15;7.25;;;4.63;;
7334;SDS011;3708;42.632;23.378;2023-09-18T13:36:43;5.18;;;4.13;;
7334;SDS011;3708;42.632;23.378;2023-09-18T13:39:12;4.68;;;3.58;;
7334;SDS011;3708;42.632;23.378;2023-09-18T13:41:42;4.55;;;3.95;;
7334;SDS011;3708;42.632;23.378;2023-09-18T13:44:09;5.25;;;4.05;;
7334;SDS011;3708;42.632;23.378;2023-09-18T13:46:36;4.80;;;4.32;;
7334;SDS011;3708;42.632;23.378;2023-09-18T13:49:05;4.95;;;3.80;;
7334;SDS011;3708;42.632;23.378;2023-09-18T13:51:32;8.50;;;4.50;;
7334;SDS011;3708;42.632;23.378;2023-09-18T13:53:59;7.38;;;5.45;;
7334;SDS011;3708;42.632;23.378;2023-09-18T13:56:26;8.10;;;3.97;;
7334;SDS011;3708;42.632;23.378;2023-09-18T13:58:54;5.10;;;4.65;;
7334;SDS011;3708;42.632;23.378;2023-09-18T14:01:22;5.78;;;4.90;;
7334;SDS011;3708;42.632;23.378;2023-09-18T14:03:51;5.80;;;4.30;;
7334;SDS011;3708;42.632;23.378;2023-09-18T14:06:20;4.43;;;3.70;;
7334;SDS011;3708;42.632;23.378;2023-09-18T14:08:46;4.90;;;4.20;;
7334;SDS011;3708;42.632;23.378;2023-09-18T14:11:14;6.57;;;4.20;;
7334;SDS011;3708;42.632;23.378;2023-09-18T14:13:43;6.32;;;3.80;;
7334;SDS011;3708;42.632;23.378;2023-09-18T14:16:10;7.35;;;4.35;;
7334;SDS011;3708;42.632;23.378;2023-09-18T14:18:39;5.50;;;3.55;;
7334;SDS011;3708;42.632;23.378;2023-09-18T14:21:07;4.32;;;3.92;;
7334;SDS011;3708;42.632;23.378;2023-09-18T14:23:36;5.57;;;4.85;;
7334;SDS011;3708;42.632;23.378;2023-09-18T14:26:03;5.50;;;3.58;;
7334;SDS011;3708;42.632;23.378;2023-09-18T14:28:30;7.00;;;3.83;;
7334;SDS011;3708;42.632;23.378;2023-09-18T14:30:58;5.25;;;4.10;;
7334;SDS011;3708;42.632;23.378;2023-09-18T14:33:24;7.60;;;5.00;;
7334;SDS011;3708;42.632;23.378;2023-09-18T14:35:52;7.70;;;4.40;;
7334;SDS011;3708;42.632;23.378;2023-09-18T14:38:19;5.07;;;4.45;;
7334;SDS011;3708;42.632;23.378;2023-09-18T14:40:47;5.55;;;4.10;;
7334;SDS011;3708;42.632;23.378;2023-09-18T14:43:14;7.05;;;4.45;;
7334;SDS011;3708;42.632;23.378;2023-09-18T14:45:41;6.43;;;4.82;;
7334;SDS011;3708;42.632;23.378;2023-09-18T14:48:08;9.27;;;4.07;;
7334;SDS011;3708;42.632;23.378;2023-09-18T14:50:37;5.65;;;4.50;;